EWG5RG LDRI-LOWS

Flight info

Callsign EWG5RG
Flight time 0h 42m
Altitude 30000
Route ALIVO DCT RASTA RASTA2R
Aircraft A320/M-SDE3FGHIRWY/LB1

Departure

Time 2026-04-25 12:52
Airport Rijeka Airport (LDRI)

Arrival

Time 2026-04-25 13:35
Airport Salzburg Airport (LOWS)
Time Latitude Longitude Altitude Speed Heading
2026-04-25 12:28 45.21915 14.57145 269 ft 0 kts 104°
2026-04-25 12:46 45.21916 14.57143 269 ft 2 kts 104°
2026-04-25 12:46 45.21920 14.57107 269 ft 4 kts 92°
2026-04-25 12:46 45.21922 14.57070 268 ft 4 kts 114°
2026-04-25 12:46 45.21928 14.57057 268 ft 0 kts 144°
2026-04-25 12:48 45.21921 14.57064 268 ft 4 kts 144°
2026-04-25 12:48 45.21893 14.57095 268 ft 6 kts 142°
2026-04-25 12:49 45.21832 14.57161 268 ft 13 kts 143°
2026-04-25 12:49 45.21759 14.57208 268 ft 11 kts 179°
2026-04-25 12:49 45.21671 14.57199 265 ft 14 kts 184°
2026-04-25 12:49 45.21569 14.57199 266 ft 15 kts 168°
2026-04-25 12:50 45.21482 14.57274 265 ft 15 kts 143°
2026-04-25 12:50 45.21385 14.57377 264 ft 20 kts 143°
2026-04-25 12:50 45.21257 14.57509 261 ft 27 kts 144°
2026-04-25 12:50 45.21096 14.57676 262 ft 29 kts 143°
2026-04-25 12:51 45.20928 14.57850 266 ft 29 kts 144°
2026-04-25 12:51 45.20802 14.57958 267 ft 11 kts 164°
2026-04-25 12:51 45.20780 14.57990 268 ft 4 kts 31°
2026-04-25 12:51 45.20820 14.57962 267 ft 10 kts 323°
2026-04-25 12:52 45.20890 14.57889 267 ft 21 kts 323°
2026-04-25 12:52 45.21239 14.57526 261 ft 99 kts 323°
2026-04-25 12:52 45.21951 14.56759 273 ft 155 kts 328°
2026-04-25 12:52 45.22841 14.55843 937 ft 157 kts 320°
2026-04-25 12:53 45.23629 14.54728 1590 ft 167 kts 309°
2026-04-25 12:53 45.24394 14.53388 2048 ft 187 kts 306°
2026-04-25 12:53 45.25227 14.51828 2364 ft 210 kts 306°
2026-04-25 12:53 45.26164 14.50070 2768 ft 235 kts 308°
2026-04-25 12:54 45.27179 14.48187 3525 ft 243 kts 305°
2026-04-25 12:54 45.28208 14.46295 4617 ft 240 kts 304°
2026-04-25 12:54 45.29234 14.44431 5658 ft 239 kts 305°
2026-04-25 12:54 45.30267 14.42565 6621 ft 242 kts 306°
2026-04-25 12:55 45.31323 14.40665 7473 ft 246 kts 308°
2026-04-25 12:55 45.32118 14.39505 8114 ft 249 kts 320°
2026-04-25 12:55 45.34233 14.38091 9312 ft 257 kts 347°
2026-04-25 12:55 45.36033 14.38068 10243 ft 263 kts
2026-04-25 12:56 45.37795 14.38737 11056 ft 268 kts 12°
2026-04-25 12:56 45.39601 14.39471 11866 ft 272 kts 13°
2026-04-25 12:56 45.41428 14.40239 12657 ft 277 kts 18°
2026-04-25 12:56 45.43135 14.41580 13421 ft 286 kts 36°
2026-04-25 12:57 45.44532 14.43679 13964 ft 304 kts 54°
2026-04-25 12:57 45.45466 14.46516 14199 ft 331 kts 69°
2026-04-25 12:57 45.46263 14.49710 14385 ft 354 kts 68°
2026-04-25 12:57 45.47105 14.53080 14774 ft 367 kts 68°
2026-04-25 12:58 45.47965 14.56523 15422 ft 371 kts 69°
2026-04-25 12:58 45.48839 14.60006 16055 ft 375 kts 68°
2026-04-25 12:58 45.49735 14.63524 16713 ft 380 kts 66°
2026-04-25 12:58 45.51036 14.66780 17367 ft 379 kts 48°
2026-04-25 12:59 45.52983 14.69281 18010 ft 378 kts 29°
2026-04-25 12:59 45.55383 14.70760 18585 ft 375 kts 10°
2026-04-25 12:59 45.57963 14.71074 19144 ft 372 kts 352°
2026-04-25 12:59 45.60478 14.70281 19706 ft 371 kts 340°
2026-04-25 13:00 45.62957 14.69162 20282 ft 375 kts 339°
2026-04-25 13:00 45.63765 14.68795 20469 ft 376 kts 339°
2026-04-25 13:00 45.67949 14.66885 21379 ft 382 kts 339°
2026-04-25 13:00 45.70499 14.65724 21889 ft 386 kts 340°
2026-04-25 13:01 45.73076 14.64555 22414 ft 390 kts 339°
2026-04-25 13:01 45.75676 14.63375 22948 ft 393 kts 339°
2026-04-25 13:01 45.78299 14.62185 23468 ft 397 kts 339°
2026-04-25 13:01 45.80944 14.60982 23903 ft 400 kts 339°
2026-04-25 13:02 45.83604 14.59772 24350 ft 403 kts 339°
2026-04-25 13:02 45.86290 14.58548 24778 ft 406 kts 339°
2026-04-25 13:02 45.88995 14.57313 25194 ft 409 kts 339°
2026-04-25 13:02 45.91715 14.56069 25615 ft 411 kts 339°
2026-04-25 13:03 45.94417 14.54833 26049 ft 414 kts 339°
2026-04-25 13:03 45.97170 14.53577 26469 ft 416 kts 339°
2026-04-25 13:03 45.99939 14.52311 26873 ft 418 kts 339°
2026-04-25 13:03 46.02722 14.51036 27274 ft 421 kts 339°
2026-04-25 13:04 46.05519 14.49752 27674 ft 424 kts 339°
2026-04-25 13:04 46.08336 14.48457 28068 ft 426 kts 339°
2026-04-25 13:04 46.11168 14.47156 28451 ft 429 kts 339°
2026-04-25 13:04 46.13091 14.46273 28718 ft 430 kts 339°
2026-04-25 13:05 46.16888 14.44531 29197 ft 434 kts 339°
2026-04-25 13:05 46.18837 14.43637 29464 ft 435 kts 339°
2026-04-25 13:05 46.21693 14.42324 29823 ft 438 kts 339°
2026-04-25 13:05 46.24637 14.40964 29981 ft 436 kts 339°
2026-04-25 13:06 46.27471 14.39658 30012 ft 420 kts 339°
2026-04-25 13:06 46.30188 14.38407 30000 ft 412 kts 338°
2026-04-25 13:06 46.35620 14.35889 30004 ft 409 kts 338°
2026-04-25 13:07 46.41034 14.33361 30005 ft 408 kts 338°
2026-04-25 13:07 46.46448 14.30831 30004 ft 408 kts 338°
2026-04-25 13:08 46.51852 14.28306 30012 ft 407 kts 338°
2026-04-25 13:08 46.57248 14.25789 30011 ft 407 kts 338°
2026-04-25 13:09 46.62634 14.23266 29999 ft 407 kts 338°
2026-04-25 13:09 46.68037 14.20733 29994 ft 407 kts 338°
2026-04-25 13:10 46.73427 14.18191 30003 ft 407 kts 338°
2026-04-25 13:10 46.78814 14.15648 30003 ft 407 kts 338°
2026-04-25 13:11 46.84198 14.13111 30004 ft 406 kts 338°
2026-04-25 13:11 46.89579 14.10563 30009 ft 406 kts 338°
2026-04-25 13:12 46.94956 14.08014 30038 ft 406 kts 338°
2026-04-25 13:12 46.99423 14.05895 30042 ft 406 kts 338°
2026-04-25 13:13 47.05672 14.02918 30043 ft 406 kts 337°
2026-04-25 13:13 47.11040 14.00349 29803 ft 405 kts 338°
2026-04-25 13:14 47.13711 13.99072 29525 ft 403 kts 338°
2026-04-25 13:14 47.16368 13.97801 29259 ft 401 kts 337°
2026-04-25 13:14 47.19012 13.96536 28982 ft 399 kts 337°
2026-04-25 13:14 47.21645 13.95273 28708 ft 397 kts 338°
2026-04-25 13:15 47.24263 13.94018 28434 ft 395 kts 338°
2026-04-25 13:15 47.26873 13.92764 28158 ft 394 kts 338°
2026-04-25 13:15 47.29475 13.91513 27901 ft 392 kts 338°
2026-04-25 13:15 47.32065 13.90262 27637 ft 391 kts 338°
2026-04-25 13:16 47.34645 13.89015 27380 ft 390 kts 338°
2026-04-25 13:16 47.37199 13.87782 27038 ft 383 kts 337°
2026-04-25 13:16 47.39713 13.86568 26605 ft 378 kts 337°
2026-04-25 13:16 47.42205 13.85364 26155 ft 374 kts 338°
2026-04-25 13:17 47.44637 13.84186 25719 ft 371 kts 338°
2026-04-25 13:17 47.47076 13.83003 25274 ft 367 kts 338°
2026-04-25 13:17 47.49492 13.81831 24842 ft 364 kts 338°
2026-04-25 13:17 47.51892 13.80665 24382 ft 362 kts 338°
2026-04-25 13:18 47.54277 13.79505 23938 ft 360 kts 338°
2026-04-25 13:18 47.56658 13.78348 23446 ft 360 kts 338°
2026-04-25 13:18 47.59028 13.77196 22951 ft 358 kts 338°
2026-04-25 13:18 47.61389 13.76044 22501 ft 355 kts 338°
2026-04-25 13:19 47.63730 13.74900 22036 ft 353 kts 338°
2026-04-25 13:19 47.66049 13.73764 21579 ft 350 kts 338°
2026-04-25 13:19 47.68355 13.72634 21124 ft 348 kts 338°
2026-04-25 13:19 47.69878 13.71888 20827 ft 347 kts 338°
2026-04-25 13:20 47.72936 13.70390 20227 ft 344 kts 338°
2026-04-25 13:20 47.75179 13.69292 19785 ft 344 kts 338°
2026-04-25 13:20 47.77446 13.68183 19338 ft 342 kts 338°
2026-04-25 13:20 47.79704 13.67077 18905 ft 341 kts 338°
2026-04-25 13:21 47.81956 13.65971 18471 ft 340 kts 338°
2026-04-25 13:21 47.84203 13.64867 17999 ft 339 kts 338°
2026-04-25 13:21 47.86432 13.63771 17542 ft 336 kts 338°
2026-04-25 13:21 47.88638 13.62685 17124 ft 333 kts 338°
2026-04-25 13:22 47.90825 13.61605 16710 ft 330 kts 338°
2026-04-25 13:22 47.92996 13.60532 16294 ft 327 kts 338°
2026-04-25 13:22 47.95157 13.59462 15880 ft 326 kts 338°
2026-04-25 13:23 47.99446 13.57343 15066 ft 323 kts 339°
2026-04-25 13:23 48.01565 13.56274 14664 ft 321 kts 336°
2026-04-25 13:23 48.03443 13.54555 14267 ft 314 kts 315°
2026-04-25 13:23 48.04740 13.51971 13843 ft 312 kts 295°
2026-04-25 13:24 48.05305 13.48873 13380 ft 311 kts 274°
2026-04-25 13:24 48.05164 13.45649 12949 ft 310 kts 264°
2026-04-25 13:24 48.04894 13.42456 12514 ft 309 kts 264°
2026-04-25 13:24 48.04627 13.39315 12091 ft 308 kts 264°
2026-04-25 13:25 48.04357 13.36146 11657 ft 306 kts 264°
2026-04-25 13:25 48.04087 13.32992 11223 ft 306 kts 264°
2026-04-25 13:25 48.03817 13.29843 10780 ft 305 kts 264°
2026-04-25 13:25 48.03547 13.26699 10297 ft 305 kts 263°
2026-04-25 13:26 48.03282 13.23614 10006 ft 290 kts 263°
2026-04-25 13:26 48.03032 13.20705 9577 ft 277 kts 263°
2026-04-25 13:26 48.02788 13.17885 9108 ft 273 kts 263°
2026-04-25 13:26 48.02546 13.15083 8469 ft 271 kts 264°
2026-04-25 13:27 48.02202 13.12341 7834 ft 268 kts 254°
2026-04-25 13:27 48.01430 13.09824 7195 ft 267 kts 241°
2026-04-25 13:27 48.00453 13.07481 6555 ft 265 kts 241°
2026-04-25 13:27 47.99491 13.05203 5920 ft 262 kts 236°
2026-04-25 13:28 47.98182 13.03359 5517 ft 253 kts 213°
2026-04-25 13:28 47.97667 13.02936 5504 ft 248 kts 208°
2026-04-25 13:28 47.94951 13.02258 5411 ft 236 kts 175°
2026-04-25 13:28 47.93366 13.02723 5355 ft 227 kts 172°
2026-04-25 13:29 47.91859 13.03190 5298 ft 214 kts 172°
2026-04-25 13:29 47.90460 13.03621 5205 ft 198 kts 171°
2026-04-25 13:29 47.89149 13.04021 5112 ft 185 kts 172°
2026-04-25 13:30 47.86840 13.04725 4961 ft 159 kts 174°
2026-04-25 13:30 47.85759 13.05055 4683 ft 161 kts 173°
2026-04-25 13:30 47.84676 13.05394 4378 ft 157 kts 173°
2026-04-25 13:31 47.82544 13.05987 3985 ft 156 kts 174°
2026-04-25 13:31 47.81498 13.06280 3751 ft 154 kts 172°
2026-04-25 13:31 47.80468 13.06640 3596 ft 150 kts 169°
2026-04-25 13:31 47.79454 13.07009 3467 ft 150 kts 169°
2026-04-25 13:32 47.78438 13.07405 3349 ft 151 kts 170°
2026-04-25 13:32 47.77426 13.07818 3237 ft 150 kts 169°
2026-04-25 13:32 47.76408 13.07914 3169 ft 144 kts 201°
2026-04-25 13:32 47.75580 13.07171 3036 ft 140 kts 229°
2026-04-25 13:33 47.75003 13.06052 2732 ft 135 kts 250°
2026-04-25 13:33 47.74793 13.04744 2514 ft 134 kts 270°
2026-04-25 13:33 47.75006 13.03448 2301 ft 131 kts 306°
2026-04-25 13:33 47.75475 13.02831 2183 ft 136 kts 326°
2026-04-25 13:34 47.76619 13.02112 1886 ft 132 kts 334°
2026-04-25 13:34 47.77446 13.01580 1691 ft 130 kts 336°
2026-04-25 13:34 47.78290 13.01057 1487 ft 133 kts 335°
2026-04-25 13:34 47.79102 13.00544 1422 ft 116 kts 334°
2026-04-25 13:35 47.79711 13.00156 1423 ft 71 kts 337°
2026-04-25 13:35 47.80008 12.99968 1422 ft 23 kts 337°
2026-04-25 13:35 47.80152 12.99879 1421 ft 21 kts 337°
2026-04-25 13:35 47.80267 12.99782 1421 ft 15 kts 304°
2026-04-25 13:36 47.80263 12.99646 1424 ft 13 kts 244°
2026-04-25 13:36 47.80187 12.99591 1423 ft 13 kts 167°
2026-04-25 13:36 47.80100 12.99645 1422 ft 13 kts 157°
2026-04-25 13:36 47.80022 12.99695 1423 ft 11 kts 156°
2026-04-25 13:37 47.79950 12.99740 1422 ft 11 kts 157°
2026-04-25 13:37 47.79878 12.99785 1422 ft 10 kts 157°
2026-04-25 13:37 47.79813 12.99827 1422 ft 11 kts 157°
2026-04-25 13:37 47.79714 12.99888 1422 ft 19 kts 160°
2026-04-25 13:38 47.79600 12.99960 1422 ft 17 kts 156°
2026-04-25 13:38 47.79499 13.00025 1423 ft 15 kts 157°
2026-04-25 13:38 47.79403 13.00083 1422 ft 14 kts 165°
2026-04-25 13:38 47.79338 13.00001 1422 ft 14 kts 246°
2026-04-25 13:39 47.79261 12.99960 1422 ft 13 kts 158°
2026-04-25 13:39 47.79183 13.00010 1422 ft 10 kts 157°
2026-04-25 13:39 47.79152 12.99985 1422 ft 5 kts 262°
2026-04-25 13:39 47.79162 12.99934 1422 ft 6 kts 283°
2026-04-25 13:40 47.79168 12.99895 1422 ft 0 kts 282°